UAL1284 KLAX-KSEA
Flight info
| Callsign | UAL1284 |
|---|---|
| Flight time | 2h 22m |
| Altitude | 36000 |
| Route | SUMMR2 SCTRR SNS RBL LMT BTG HAWKZ8 |
| Aircraft | A320/M-SDE3FGHIRWY/LB1 |
Departure
| Time | 2026-05-05 23:47 |
|---|---|
| Airport | Los Angeles International Airport (KLAX) |
Arrival
| Time | 2026-05-06 02:09 |
|---|---|
| Airport | Seattle–Tacoma International Airport (KSEA) |
| Time | Latitude | Longitude | Altitude | Speed | Heading |
|---|---|---|---|---|---|
| 2026-05-05 23:13 | 33.94159 | -118.40023 | 95 ft | 0 kts | 90° |
| 2026-05-05 23:36 | 33.94159 | -118.40024 | 95 ft | 2 kts | 90° |
| 2026-05-05 23:36 | 33.94160 | -118.40040 | 97 ft | 4 kts | 94° |
| 2026-05-05 23:36 | 33.94165 | -118.40070 | 95 ft | 4 kts | 123° |
| 2026-05-05 23:37 | 33.94183 | -118.40089 | 95 ft | 2 kts | 172° |
| 2026-05-05 23:37 | 33.94186 | -118.40089 | 95 ft | 0 kts | 173° |
| 2026-05-05 23:38 | 33.94176 | -118.40088 | 96 ft | 4 kts | 173° |
| 2026-05-05 23:39 | 33.94144 | -118.40086 | 97 ft | 5 kts | 179° |
| 2026-05-05 23:39 | 33.94109 | -118.40087 | 95 ft | 5 kts | 182° |
| 2026-05-05 23:39 | 33.94074 | -118.40087 | 95 ft | 5 kts | 172° |
| 2026-05-05 23:39 | 33.94055 | -118.40081 | 96 ft | 1 kts | 167° |
| 2026-05-05 23:40 | 33.94049 | -118.40079 | 96 ft | 1 kts | 167° |
| 2026-05-05 23:40 | 33.94031 | -118.40074 | 96 ft | 4 kts | 167° |
| 2026-05-05 23:40 | 33.93998 | -118.40065 | 98 ft | 6 kts | 166° |
| 2026-05-05 23:40 | 33.93956 | -118.40057 | 98 ft | 6 kts | 180° |
| 2026-05-05 23:41 | 33.93914 | -118.40045 | 101 ft | 6 kts | 155° |
| 2026-05-05 23:41 | 33.93891 | -118.40022 | 103 ft | 5 kts | 128° |
| 2026-05-05 23:41 | 33.93882 | -118.39966 | 104 ft | 9 kts | 86° |
| 2026-05-05 23:41 | 33.93892 | -118.39866 | 104 ft | 14 kts | 83° |
| 2026-05-05 23:42 | 33.93903 | -118.39745 | 103 ft | 15 kts | 83° |
| 2026-05-05 23:42 | 33.93914 | -118.39630 | 103 ft | 14 kts | 84° |
| 2026-05-05 23:42 | 33.93927 | -118.39509 | 103 ft | 16 kts | 81° |
| 2026-05-05 23:42 | 33.93941 | -118.39371 | 101 ft | 18 kts | 83° |
| 2026-05-05 23:43 | 33.93953 | -118.39262 | 101 ft | 13 kts | 84° |
| 2026-05-05 23:43 | 33.93964 | -118.39146 | 101 ft | 15 kts | 83° |
| 2026-05-05 23:43 | 33.93978 | -118.39023 | 102 ft | 16 kts | 83° |
| 2026-05-05 23:43 | 33.93992 | -118.38885 | 102 ft | 17 kts | 82° |
| 2026-05-05 23:44 | 33.94006 | -118.38746 | 102 ft | 16 kts | 82° |
| 2026-05-05 23:44 | 33.94019 | -118.38622 | 103 ft | 15 kts | 83° |
| 2026-05-05 23:44 | 33.94030 | -118.38513 | 103 ft | 13 kts | 82° |
| 2026-05-05 23:44 | 33.94042 | -118.38401 | 103 ft | 14 kts | 82° |
| 2026-05-05 23:45 | 33.94054 | -118.38276 | 103 ft | 16 kts | 84° |
| 2026-05-05 23:45 | 33.94066 | -118.38150 | 103 ft | 14 kts | 86° |
| 2026-05-05 23:45 | 33.94078 | -118.38040 | 102 ft | 10 kts | 93° |
| 2026-05-05 23:45 | 33.94024 | -118.37996 | 108 ft | 11 kts | 177° |
| 2026-05-05 23:46 | 33.93984 | -118.38026 | 110 ft | 8 kts | 265° |
| 2026-05-05 23:46 | 33.93966 | -118.38197 | 110 ft | 49 kts | 262° |
| 2026-05-05 23:46 | 33.93900 | -118.38853 | 107 ft | 106 kts | 263° |
| 2026-05-05 23:46 | 33.93788 | -118.39924 | 113 ft | 150 kts | 263° |
| 2026-05-05 23:47 | 33.93666 | -118.41196 | 600 ft | 151 kts | 263° |
| 2026-05-05 23:47 | 33.93528 | -118.42442 | 1404 ft | 149 kts | 261° |
| 2026-05-05 23:47 | 33.93388 | -118.43695 | 2229 ft | 156 kts | 261° |
| 2026-05-05 23:47 | 33.93238 | -118.45040 | 2808 ft | 172 kts | 263° |
| 2026-05-05 23:48 | 33.93092 | -118.46543 | 3192 ft | 188 kts | 264° |
| 2026-05-05 23:48 | 33.92951 | -118.48177 | 3482 ft | 209 kts | 264° |
| 2026-05-05 23:48 | 33.92801 | -118.50032 | 3758 ft | 234 kts | 265° |
| 2026-05-05 23:48 | 33.92646 | -118.52070 | 4249 ft | 253 kts | 265° |
| 2026-05-05 23:49 | 33.92478 | -118.54210 | 5009 ft | 260 kts | 265° |
| 2026-05-05 23:49 | 33.92303 | -118.56394 | 5820 ft | 264 kts | 265° |
| 2026-05-05 23:49 | 33.92126 | -118.58607 | 6658 ft | 267 kts | 266° |
| 2026-05-05 23:49 | 33.91943 | -118.60852 | 7465 ft | 273 kts | 266° |
| 2026-05-05 23:50 | 33.91769 | -118.63152 | 8224 ft | 278 kts | 271° |
| 2026-05-05 23:50 | 33.91775 | -118.65472 | 8958 ft | 282 kts | 273° |
| 2026-05-05 23:50 | 33.91784 | -118.67853 | 9730 ft | 286 kts | 273° |
| 2026-05-05 23:50 | 33.91779 | -118.70269 | 10408 ft | 292 kts | 272° |
| 2026-05-05 23:51 | 33.91769 | -118.72810 | 10616 ft | 315 kts | 272° |
| 2026-05-05 23:51 | 33.91760 | -118.75539 | 10797 ft | 336 kts | 272° |
| 2026-05-05 23:51 | 33.91745 | -118.78385 | 11305 ft | 344 kts | 272° |
| 2026-05-05 23:51 | 33.91719 | -118.81288 | 11862 ft | 349 kts | 271° |
| 2026-05-05 23:52 | 33.91693 | -118.84207 | 11894 ft | 350 kts | 272° |
| 2026-05-05 23:52 | 33.91731 | -118.87105 | 12577 ft | 351 kts | 274° |
| 2026-05-05 23:52 | 33.91818 | -118.90041 | 13288 ft | 353 kts | 275° |
| 2026-05-05 23:52 | 33.91929 | -118.93005 | 13965 ft | 355 kts | 275° |
| 2026-05-05 23:53 | 33.92044 | -118.95990 | 14565 ft | 358 kts | 275° |
| 2026-05-05 23:53 | 33.92209 | -118.98991 | 15141 ft | 360 kts | 280° |
| 2026-05-05 23:53 | 33.92781 | -119.01923 | 15704 ft | 361 kts | 291° |
| 2026-05-05 23:53 | 33.93810 | -119.04673 | 16269 ft | 361 kts | 302° |
| 2026-05-05 23:54 | 33.95137 | -119.07256 | 16845 ft | 364 kts | 303° |
| 2026-05-05 23:54 | 33.96481 | -119.09855 | 17416 ft | 367 kts | 303° |
| 2026-05-05 23:54 | 33.97835 | -119.12482 | 18004 ft | 370 kts | 303° |
| 2026-05-05 23:54 | 33.99178 | -119.15096 | 18540 ft | 374 kts | 304° |
| 2026-05-05 23:55 | 34.00670 | -119.17665 | 19060 ft | 375 kts | 312° |
| 2026-05-05 23:55 | 34.02511 | -119.19883 | 19606 ft | 375 kts | 322° |
| 2026-05-05 23:55 | 34.04619 | -119.21750 | 20159 ft | 377 kts | 326° |
| 2026-05-05 23:55 | 34.06763 | -119.23582 | 20725 ft | 379 kts | 326° |
| 2026-05-05 23:56 | 34.08920 | -119.25435 | 21253 ft | 381 kts | 326° |
| 2026-05-05 23:56 | 34.11085 | -119.27299 | 21755 ft | 384 kts | 326° |
| 2026-05-05 23:56 | 34.13263 | -119.29175 | 22259 ft | 386 kts | 327° |
| 2026-05-05 23:56 | 34.15452 | -119.31062 | 22755 ft | 388 kts | 327° |
| 2026-05-05 23:57 | 34.17619 | -119.32932 | 23276 ft | 389 kts | 327° |
| 2026-05-05 23:57 | 34.19833 | -119.34841 | 23748 ft | 392 kts | 327° |
| 2026-05-05 23:57 | 34.22057 | -119.36761 | 24126 ft | 394 kts | 327° |
| 2026-05-05 23:57 | 34.24291 | -119.38688 | 24496 ft | 396 kts | 327° |
| 2026-05-05 23:58 | 34.26539 | -119.40629 | 24856 ft | 399 kts | 327° |
| 2026-05-05 23:58 | 34.28807 | -119.42586 | 25203 ft | 401 kts | 327° |
| 2026-05-05 23:58 | 34.31085 | -119.44553 | 25551 ft | 404 kts | 328° |
| 2026-05-05 23:58 | 34.33374 | -119.46532 | 25889 ft | 406 kts | 328° |
| 2026-05-05 23:59 | 34.35677 | -119.48527 | 26227 ft | 408 kts | 328° |
| 2026-05-05 23:59 | 34.37960 | -119.50504 | 26549 ft | 410 kts | 328° |
| 2026-05-05 23:59 | 34.40289 | -119.52524 | 26894 ft | 413 kts | 328° |
| 2026-05-05 23:59 | 34.42617 | -119.54576 | 27232 ft | 416 kts | 327° |
| 2026-05-06 00:00 | 34.44925 | -119.56700 | 27564 ft | 418 kts | 327° |
| 2026-05-06 00:00 | 34.47223 | -119.58881 | 27862 ft | 421 kts | 326° |
| 2026-05-06 00:00 | 34.49523 | -119.61093 | 28139 ft | 423 kts | 326° |
| 2026-05-06 00:00 | 34.51837 | -119.63316 | 28474 ft | 425 kts | 327° |
| 2026-05-06 00:01 | 34.54166 | -119.65543 | 28786 ft | 427 kts | 327° |
| 2026-05-06 00:01 | 34.56478 | -119.67737 | 29098 ft | 429 kts | 327° |
| 2026-05-06 00:01 | 34.58829 | -119.69961 | 29537 ft | 428 kts | 328° |
| 2026-05-06 00:01 | 34.61183 | -119.72183 | 29977 ft | 428 kts | 328° |
| 2026-05-06 00:02 | 34.63537 | -119.74404 | 30336 ft | 428 kts | 328° |
| 2026-05-06 00:02 | 34.65893 | -119.76626 | 30654 ft | 429 kts | 328° |
| 2026-05-06 00:02 | 34.68246 | -119.78851 | 31087 ft | 428 kts | 328° |
| 2026-05-06 00:02 | 34.70589 | -119.81073 | 31454 ft | 427 kts | 328° |
| 2026-05-06 00:03 | 34.72928 | -119.83292 | 31810 ft | 426 kts | 328° |
| 2026-05-06 00:03 | 34.75232 | -119.85487 | 32165 ft | 426 kts | 328° |
| 2026-05-06 00:03 | 34.77564 | -119.87707 | 32551 ft | 426 kts | 328° |
| 2026-05-06 00:03 | 34.79895 | -119.89927 | 32848 ft | 426 kts | 328° |
| 2026-05-06 00:04 | 34.82230 | -119.92154 | 33209 ft | 426 kts | 328° |
| 2026-05-06 00:04 | 34.84556 | -119.94371 | 33631 ft | 424 kts | 328° |
| 2026-05-06 00:04 | 34.86881 | -119.96580 | 34014 ft | 424 kts | 328° |
| 2026-05-06 00:04 | 34.89208 | -119.98792 | 34333 ft | 423 kts | 328° |
| 2026-05-06 00:05 | 34.93834 | -120.03214 | 34861 ft | 423 kts | 328° |
| 2026-05-06 00:05 | 34.96120 | -120.05400 | 35124 ft | 423 kts | 327° |
| 2026-05-06 00:05 | 34.98437 | -120.07617 | 35382 ft | 424 kts | 327° |
| 2026-05-06 00:06 | 35.00755 | -120.09841 | 35640 ft | 424 kts | 327° |
| 2026-05-06 00:06 | 35.03071 | -120.12066 | 35901 ft | 424 kts | 327° |
| 2026-05-06 00:06 | 35.05393 | -120.14294 | 36025 ft | 425 kts | 327° |
| 2026-05-06 00:07 | 35.10104 | -120.18802 | 36055 ft | 434 kts | 327° |
| 2026-05-06 00:07 | 35.14840 | -120.23351 | 36053 ft | 436 kts | 327° |
| 2026-05-06 00:08 | 35.19624 | -120.27917 | 36057 ft | 436 kts | 328° |
| 2026-05-06 00:08 | 35.24486 | -120.32358 | 36054 ft | 436 kts | 329° |
| 2026-05-06 00:09 | 35.29375 | -120.36773 | 36060 ft | 437 kts | 329° |
| 2026-05-06 00:09 | 35.34255 | -120.41225 | 36061 ft | 438 kts | 329° |
| 2026-05-06 00:10 | 35.39097 | -120.45684 | 36065 ft | 438 kts | 329° |
| 2026-05-06 00:10 | 35.43972 | -120.50185 | 36070 ft | 439 kts | 329° |
| 2026-05-06 00:11 | 35.48848 | -120.54675 | 36077 ft | 439 kts | 329° |
| 2026-05-06 00:11 | 35.53729 | -120.59167 | 36083 ft | 438 kts | 329° |
| 2026-05-06 00:12 | 35.58631 | -120.63518 | 36085 ft | 437 kts | 330° |
| 2026-05-06 00:12 | 35.63592 | -120.67846 | 36085 ft | 437 kts | 330° |
| 2026-05-06 00:13 | 35.68544 | -120.72209 | 36083 ft | 438 kts | 330° |
| 2026-05-06 00:13 | 35.73481 | -120.76590 | 36086 ft | 438 kts | 330° |
| 2026-05-06 00:14 | 35.78380 | -120.80956 | 36088 ft | 438 kts | 330° |
| 2026-05-06 00:14 | 35.83320 | -120.85349 | 36089 ft | 438 kts | 330° |
| 2026-05-06 00:15 | 35.88252 | -120.89745 | 36094 ft | 438 kts | 330° |
| 2026-05-06 00:15 | 35.93186 | -120.94149 | 36094 ft | 437 kts | 330° |
| 2026-05-06 00:16 | 35.98115 | -120.98556 | 36095 ft | 438 kts | 331° |
| 2026-05-06 00:16 | 36.03012 | -121.02937 | 36094 ft | 438 kts | 331° |
| 2026-05-06 00:17 | 36.07944 | -121.07355 | 36096 ft | 438 kts | 331° |
| 2026-05-06 00:17 | 36.12872 | -121.11781 | 36105 ft | 438 kts | 331° |
| 2026-05-06 00:18 | 36.17792 | -121.16214 | 36109 ft | 438 kts | 331° |
| 2026-05-06 00:18 | 36.22679 | -121.20621 | 36109 ft | 437 kts | 331° |
| 2026-05-06 00:19 | 36.27597 | -121.25054 | 36115 ft | 437 kts | 331° |
| 2026-05-06 00:19 | 36.32512 | -121.29499 | 36117 ft | 437 kts | 331° |
| 2026-05-06 00:20 | 36.37424 | -121.33957 | 36118 ft | 437 kts | 331° |
| 2026-05-06 00:20 | 36.42304 | -121.38381 | 36115 ft | 437 kts | 331° |
| 2026-05-06 00:21 | 36.47212 | -121.42841 | 36108 ft | 437 kts | 331° |
| 2026-05-06 00:21 | 36.52124 | -121.47306 | 36101 ft | 437 kts | 331° |
| 2026-05-06 00:22 | 36.57032 | -121.51773 | 36093 ft | 437 kts | 331° |
| 2026-05-06 00:22 | 36.61906 | -121.56222 | 36091 ft | 437 kts | 331° |
| 2026-05-06 00:23 | 36.67072 | -121.59933 | 36086 ft | 421 kts | 347° |
| 2026-05-06 00:23 | 36.72675 | -121.61431 | 36088 ft | 410 kts | 358° |
| 2026-05-06 00:24 | 36.78323 | -121.62413 | 36089 ft | 410 kts | 358° |
| 2026-05-06 00:24 | 36.83971 | -121.63414 | 36100 ft | 410 kts | 358° |
| 2026-05-06 00:25 | 36.89582 | -121.64409 | 36099 ft | 410 kts | 358° |
| 2026-05-06 00:25 | 36.95230 | -121.65402 | 36105 ft | 410 kts | 358° |
| 2026-05-06 00:26 | 37.00879 | -121.66397 | 36102 ft | 410 kts | 358° |
| 2026-05-06 00:26 | 37.06523 | -121.67402 | 36102 ft | 410 kts | 358° |
| 2026-05-06 00:27 | 37.12126 | -121.68406 | 36096 ft | 409 kts | 358° |
| 2026-05-06 00:27 | 37.17757 | -121.69415 | 36087 ft | 409 kts | 358° |
| 2026-05-06 00:28 | 37.23385 | -121.70422 | 36087 ft | 409 kts | 358° |
| 2026-05-06 00:28 | 37.29014 | -121.71421 | 36086 ft | 409 kts | 358° |
| 2026-05-06 00:29 | 37.34647 | -121.72423 | 36086 ft | 409 kts | 358° |
| 2026-05-06 00:29 | 37.40249 | -121.73426 | 36088 ft | 409 kts | 358° |
| 2026-05-06 00:30 | 37.45888 | -121.74440 | 36086 ft | 409 kts | 358° |
| 2026-05-06 00:30 | 37.51525 | -121.75463 | 36077 ft | 409 kts | 358° |
| 2026-05-06 00:31 | 37.57153 | -121.76476 | 36065 ft | 409 kts | 358° |
| 2026-05-06 00:31 | 37.62787 | -121.77479 | 36065 ft | 409 kts | 358° |
| 2026-05-06 00:32 | 37.68384 | -121.78488 | 36066 ft | 409 kts | 358° |
| 2026-05-06 00:32 | 37.74027 | -121.79517 | 36078 ft | 410 kts | 358° |
| 2026-05-06 00:33 | 37.79670 | -121.80537 | 36072 ft | 410 kts | 358° |
| 2026-05-06 00:33 | 37.85308 | -121.81558 | 36072 ft | 410 kts | 358° |
| 2026-05-06 00:34 | 37.90910 | -121.82579 | 36063 ft | 409 kts | 358° |
| 2026-05-06 00:34 | 37.96554 | -121.83606 | 36063 ft | 409 kts | 358° |
| 2026-05-06 00:35 | 38.02192 | -121.84630 | 36064 ft | 409 kts | 358° |
| 2026-05-06 00:35 | 38.07829 | -121.85653 | 36059 ft | 409 kts | 358° |
| 2026-05-06 00:36 | 38.13462 | -121.86684 | 36031 ft | 409 kts | 357° |
| 2026-05-06 00:36 | 38.19056 | -121.87707 | 36026 ft | 409 kts | 357° |
| 2026-05-06 00:37 | 38.24695 | -121.88743 | 36023 ft | 409 kts | 357° |
| 2026-05-06 00:37 | 38.30329 | -121.89782 | 36024 ft | 409 kts | 357° |
| 2026-05-06 00:38 | 38.35966 | -121.90818 | 36043 ft | 409 kts | 357° |
| 2026-05-06 00:38 | 38.41571 | -121.91847 | 36043 ft | 410 kts | 357° |
| 2026-05-06 00:39 | 38.47211 | -121.92888 | 36045 ft | 410 kts | 357° |
| 2026-05-06 00:39 | 38.52856 | -121.93935 | 36054 ft | 410 kts | 357° |
| 2026-05-06 00:40 | 38.58498 | -121.94977 | 36057 ft | 410 kts | 357° |
| 2026-05-06 00:40 | 38.64105 | -121.96014 | 36056 ft | 410 kts | 357° |
| 2026-05-06 00:41 | 38.69746 | -121.97064 | 36049 ft | 410 kts | 357° |
| 2026-05-06 00:41 | 38.75387 | -121.98115 | 36045 ft | 410 kts | 357° |
| 2026-05-06 00:42 | 38.81035 | -121.99166 | 36035 ft | 410 kts | 356° |
| 2026-05-06 00:42 | 38.86676 | -122.00211 | 36024 ft | 410 kts | 356° |
| 2026-05-06 00:43 | 38.92286 | -122.01258 | 36015 ft | 410 kts | 356° |
| 2026-05-06 00:43 | 38.97930 | -122.02314 | 36012 ft | 410 kts | 356° |
| 2026-05-06 00:44 | 39.03577 | -122.03378 | 36009 ft | 410 kts | 356° |
| 2026-05-06 00:44 | 39.09227 | -122.04439 | 36012 ft | 410 kts | 356° |
| 2026-05-06 00:45 | 39.14838 | -122.05490 | 36007 ft | 410 kts | 356° |
| 2026-05-06 00:45 | 39.20490 | -122.06558 | 36001 ft | 411 kts | 356° |
| 2026-05-06 00:46 | 39.26146 | -122.07621 | 35999 ft | 411 kts | 356° |
| 2026-05-06 00:46 | 39.31812 | -122.08693 | 35998 ft | 411 kts | 356° |
| 2026-05-06 00:47 | 39.37477 | -122.09772 | 36000 ft | 412 kts | 356° |
| 2026-05-06 00:47 | 39.43112 | -122.10843 | 36000 ft | 412 kts | 356° |
| 2026-05-06 00:48 | 39.48787 | -122.11917 | 36003 ft | 412 kts | 356° |
| 2026-05-06 00:48 | 39.54466 | -122.12997 | 36013 ft | 413 kts | 355° |
| 2026-05-06 00:49 | 39.60149 | -122.14083 | 36021 ft | 413 kts | 355° |
| 2026-05-06 00:49 | 39.65797 | -122.15170 | 36025 ft | 413 kts | 355° |
| 2026-05-06 00:50 | 39.71484 | -122.16252 | 36028 ft | 413 kts | 355° |
| 2026-05-06 00:50 | 39.77176 | -122.17334 | 36033 ft | 414 kts | 355° |
| 2026-05-06 00:51 | 39.82871 | -122.18424 | 36034 ft | 414 kts | 355° |
| 2026-05-06 00:51 | 39.88568 | -122.19512 | 36031 ft | 414 kts | 355° |
| 2026-05-06 00:52 | 39.94230 | -122.20605 | 36027 ft | 414 kts | 355° |
| 2026-05-06 00:52 | 39.99931 | -122.21714 | 36028 ft | 415 kts | 355° |
| 2026-05-06 00:53 | 40.05641 | -122.22819 | 36029 ft | 415 kts | 355° |
| 2026-05-06 00:53 | 40.11357 | -122.23229 | 36027 ft | 409 kts | 9° |
| 2026-05-06 00:54 | 40.16911 | -122.21944 | 36022 ft | 408 kts | 12° |
| 2026-05-06 00:54 | 40.22496 | -122.20600 | 36032 ft | 409 kts | 12° |
| 2026-05-06 00:55 | 40.28090 | -122.19259 | 36031 ft | 409 kts | 12° |
| 2026-05-06 00:55 | 40.33689 | -122.17906 | 36030 ft | 409 kts | 12° |
| 2026-05-06 00:56 | 40.39281 | -122.16544 | 36017 ft | 409 kts | 12° |
| 2026-05-06 00:56 | 40.44839 | -122.15204 | 36017 ft | 409 kts | 12° |
| 2026-05-06 00:57 | 40.50436 | -122.13853 | 36018 ft | 409 kts | 12° |
| 2026-05-06 00:57 | 40.56026 | -122.12493 | 36015 ft | 409 kts | 12° |
| 2026-05-06 00:58 | 40.61619 | -122.11131 | 36015 ft | 409 kts | 12° |
| 2026-05-06 00:58 | 40.67171 | -122.09775 | 36015 ft | 408 kts | 12° |
| 2026-05-06 00:59 | 40.72754 | -122.08404 | 36013 ft | 408 kts | 12° |
| 2026-05-06 00:59 | 40.78336 | -122.07036 | 36009 ft | 408 kts | 12° |
| 2026-05-06 01:00 | 40.83915 | -122.05667 | 36010 ft | 407 kts | 12° |
| 2026-05-06 01:00 | 40.89450 | -122.04305 | 36009 ft | 407 kts | 12° |
| 2026-05-06 01:01 | 40.95024 | -122.02936 | 36003 ft | 407 kts | 12° |
| 2026-05-06 01:01 | 41.00594 | -122.01575 | 35997 ft | 407 kts | 12° |
| 2026-05-06 01:02 | 41.06168 | -122.00196 | 35995 ft | 408 kts | 12° |
| 2026-05-06 01:02 | 41.11741 | -121.98816 | 35986 ft | 408 kts | 12° |
| 2026-05-06 01:03 | 41.17286 | -121.97443 | 35983 ft | 408 kts | 12° |
| 2026-05-06 01:03 | 41.22866 | -121.96057 | 35977 ft | 408 kts | 12° |
| 2026-05-06 01:04 | 41.28449 | -121.94669 | 35971 ft | 408 kts | 12° |
| 2026-05-06 01:04 | 41.34029 | -121.93281 | 35974 ft | 408 kts | 12° |
| 2026-05-06 01:05 | 41.39580 | -121.91903 | 35974 ft | 408 kts | 12° |
| 2026-05-06 01:05 | 41.45162 | -121.90506 | 35973 ft | 408 kts | 12° |
| 2026-05-06 01:06 | 41.50751 | -121.89104 | 35969 ft | 409 kts | 12° |
| 2026-05-06 01:06 | 41.56338 | -121.87693 | 35969 ft | 408 kts | 12° |
| 2026-05-06 01:07 | 41.61879 | -121.86298 | 35967 ft | 408 kts | 12° |
| 2026-05-06 01:07 | 41.67449 | -121.84894 | 35960 ft | 407 kts | 12° |
| 2026-05-06 01:08 | 41.73020 | -121.83490 | 35959 ft | 407 kts | 12° |
| 2026-05-06 01:08 | 41.78593 | -121.82085 | 35954 ft | 407 kts | 12° |
| 2026-05-06 01:09 | 41.84119 | -121.80693 | 35961 ft | 407 kts | 12° |
| 2026-05-06 01:09 | 41.89689 | -121.79283 | 35974 ft | 407 kts | 12° |
| 2026-05-06 01:10 | 41.95250 | -121.77869 | 35986 ft | 407 kts | 12° |
| 2026-05-06 01:10 | 42.00818 | -121.76455 | 36002 ft | 407 kts | 12° |
| 2026-05-06 01:11 | 42.06386 | -121.75035 | 36017 ft | 407 kts | 12° |
| 2026-05-06 01:11 | 42.11915 | -121.73624 | 36020 ft | 407 kts | 12° |
| 2026-05-06 01:12 | 42.17565 | -121.73272 | 36018 ft | 410 kts | 354° |
| 2026-05-06 01:12 | 42.23214 | -121.74524 | 36015 ft | 411 kts | 353° |
| 2026-05-06 01:13 | 42.28859 | -121.75813 | 36003 ft | 412 kts | 353° |
| 2026-05-06 01:13 | 42.34479 | -121.77094 | 35985 ft | 412 kts | 353° |
| 2026-05-06 01:14 | 42.42962 | -121.79034 | 35963 ft | 412 kts | 353° |
| 2026-05-06 01:14 | 42.48622 | -121.80328 | 35952 ft | 412 kts | 353° |
| 2026-05-06 01:15 | 42.54282 | -121.81620 | 35948 ft | 413 kts | 353° |
| 2026-05-06 01:15 | 42.59902 | -121.82910 | 35950 ft | 413 kts | 352° |
| 2026-05-06 01:16 | 42.65566 | -121.84210 | 35952 ft | 413 kts | 353° |
| 2026-05-06 01:16 | 42.71232 | -121.85509 | 35956 ft | 413 kts | 352° |
| 2026-05-06 01:17 | 42.76901 | -121.86820 | 35959 ft | 413 kts | 352° |
| 2026-05-06 01:17 | 42.82528 | -121.88129 | 35962 ft | 413 kts | 352° |
| 2026-05-06 01:18 | 42.88197 | -121.89436 | 35966 ft | 413 kts | 352° |
| 2026-05-06 01:18 | 42.93873 | -121.90743 | 35971 ft | 413 kts | 352° |
| 2026-05-06 01:19 | 42.99543 | -121.92062 | 35973 ft | 414 kts | 352° |
| 2026-05-06 01:19 | 43.04262 | -121.93167 | 35977 ft | 414 kts | 352° |
| 2026-05-06 01:20 | 43.10850 | -121.94702 | 35982 ft | 414 kts | 352° |
| 2026-05-06 01:20 | 43.16526 | -121.96030 | 35982 ft | 414 kts | 352° |
| 2026-05-06 01:21 | 43.21241 | -121.97139 | 35992 ft | 414 kts | 352° |
| 2026-05-06 01:21 | 43.26915 | -121.98466 | 35996 ft | 413 kts | 352° |
| 2026-05-06 01:22 | 43.33505 | -122.00009 | 36001 ft | 413 kts | 352° |
| 2026-05-06 01:22 | 43.38253 | -122.01123 | 36005 ft | 413 kts | 352° |
| 2026-05-06 01:23 | 43.43885 | -122.02450 | 36007 ft | 413 kts | 352° |
| 2026-05-06 01:23 | 43.49548 | -122.03785 | 36010 ft | 413 kts | 352° |
| 2026-05-06 01:24 | 43.55215 | -122.05126 | 36022 ft | 413 kts | 352° |
| 2026-05-06 01:24 | 43.60878 | -122.06467 | 36025 ft | 413 kts | 352° |
| 2026-05-06 01:25 | 43.66504 | -122.07801 | 36026 ft | 413 kts | 352° |
| 2026-05-06 01:25 | 43.72161 | -122.09154 | 36032 ft | 413 kts | 352° |
| 2026-05-06 01:26 | 43.77815 | -122.10506 | 36037 ft | 412 kts | 352° |
| 2026-05-06 01:26 | 43.83473 | -122.11856 | 36043 ft | 413 kts | 352° |
| 2026-05-06 01:27 | 43.89096 | -122.13199 | 36048 ft | 413 kts | 351° |
| 2026-05-06 01:27 | 43.94757 | -122.14555 | 36049 ft | 413 kts | 351° |
| 2026-05-06 01:28 | 44.00415 | -122.15915 | 36048 ft | 413 kts | 351° |
| 2026-05-06 01:28 | 44.06074 | -122.17277 | 36052 ft | 413 kts | 352° |
| 2026-05-06 01:29 | 44.11694 | -122.18635 | 36059 ft | 413 kts | 351° |
| 2026-05-06 01:29 | 44.17346 | -122.20000 | 36063 ft | 412 kts | 351° |
| 2026-05-06 01:30 | 44.22996 | -122.21367 | 36065 ft | 412 kts | 351° |
| 2026-05-06 01:30 | 44.28642 | -122.22737 | 36068 ft | 412 kts | 351° |
| 2026-05-06 01:31 | 44.34282 | -122.24101 | 36067 ft | 411 kts | 351° |
| 2026-05-06 01:31 | 44.39885 | -122.25465 | 36071 ft | 411 kts | 351° |
| 2026-05-06 01:32 | 44.45520 | -122.26833 | 36070 ft | 411 kts | 351° |
| 2026-05-06 01:32 | 44.51154 | -122.28212 | 36074 ft | 411 kts | 351° |
| 2026-05-06 01:33 | 44.56786 | -122.29597 | 36075 ft | 411 kts | 351° |
| 2026-05-06 01:33 | 44.62380 | -122.30976 | 36076 ft | 411 kts | 351° |
| 2026-05-06 01:34 | 44.68010 | -122.32363 | 36075 ft | 411 kts | 351° |
| 2026-05-06 01:34 | 44.73642 | -122.33742 | 36079 ft | 411 kts | 351° |
| 2026-05-06 01:35 | 44.79275 | -122.35127 | 36078 ft | 411 kts | 351° |
| 2026-05-06 01:35 | 44.84899 | -122.36529 | 36079 ft | 410 kts | 351° |
| 2026-05-06 01:36 | 44.90525 | -122.37929 | 36083 ft | 411 kts | 351° |
| 2026-05-06 01:36 | 44.96112 | -122.39315 | 36086 ft | 410 kts | 351° |
| 2026-05-06 01:37 | 45.01736 | -122.40709 | 36084 ft | 410 kts | 351° |
| 2026-05-06 01:37 | 45.07358 | -122.42101 | 36085 ft | 410 kts | 351° |
| 2026-05-06 01:38 | 45.12983 | -122.43513 | 36085 ft | 410 kts | 351° |
| 2026-05-06 01:38 | 45.18565 | -122.44914 | 36084 ft | 410 kts | 351° |
| 2026-05-06 01:39 | 45.24187 | -122.46323 | 36084 ft | 410 kts | 351° |
| 2026-05-06 01:39 | 45.29809 | -122.47735 | 36086 ft | 410 kts | 351° |
| 2026-05-06 01:40 | 45.35435 | -122.49154 | 36080 ft | 410 kts | 351° |
| 2026-05-06 01:40 | 45.41021 | -122.50566 | 36078 ft | 411 kts | 351° |
| 2026-05-06 01:41 | 45.46645 | -122.51992 | 36077 ft | 411 kts | 351° |
| 2026-05-06 01:41 | 45.52269 | -122.53413 | 36079 ft | 411 kts | 351° |
| 2026-05-06 01:42 | 45.57973 | -122.54868 | 36080 ft | 411 kts | 350° |
| 2026-05-06 01:42 | 45.63596 | -122.56310 | 36076 ft | 411 kts | 351° |
| 2026-05-06 01:43 | 45.69225 | -122.57732 | 36088 ft | 411 kts | 351° |
| 2026-05-06 01:43 | 45.74810 | -122.59153 | 36085 ft | 411 kts | 350° |
| 2026-05-06 01:44 | 45.80441 | -122.60568 | 36020 ft | 411 kts | 351° |
| 2026-05-06 01:44 | 45.83260 | -122.61264 | 35765 ft | 411 kts | 351° |
| 2026-05-06 01:44 | 45.86075 | -122.61957 | 35520 ft | 411 kts | 351° |
| 2026-05-06 01:45 | 45.88891 | -122.62645 | 35275 ft | 411 kts | 351° |
| 2026-05-06 01:45 | 45.91677 | -122.63327 | 35036 ft | 412 kts | 351° |
| 2026-05-06 01:45 | 45.94498 | -122.64023 | 34800 ft | 412 kts | 351° |
| 2026-05-06 01:45 | 45.97323 | -122.64723 | 34355 ft | 413 kts | 351° |
| 2026-05-06 01:46 | 46.00171 | -122.65433 | 33484 ft | 417 kts | 351° |
| 2026-05-06 01:46 | 46.03036 | -122.66150 | 32683 ft | 419 kts | 351° |
| 2026-05-06 01:46 | 46.05911 | -122.66869 | 32079 ft | 416 kts | 351° |
| 2026-05-06 01:46 | 46.08744 | -122.67576 | 31594 ft | 412 kts | 351° |
| 2026-05-06 01:47 | 46.11562 | -122.68246 | 31041 ft | 409 kts | 352° |
| 2026-05-06 01:47 | 46.14332 | -122.68826 | 30493 ft | 407 kts | 352° |
| 2026-05-06 01:47 | 46.17129 | -122.69362 | 29892 ft | 405 kts | 353° |
| 2026-05-06 01:47 | 46.19911 | -122.69876 | 29313 ft | 401 kts | 353° |
| 2026-05-06 01:48 | 46.22664 | -122.70385 | 28771 ft | 397 kts | 353° |
| 2026-05-06 01:48 | 46.25395 | -122.70904 | 28228 ft | 394 kts | 353° |
| 2026-05-06 01:48 | 46.28103 | -122.71430 | 27687 ft | 391 kts | 352° |
| 2026-05-06 01:48 | 46.30792 | -122.71963 | 27152 ft | 389 kts | 352° |
| 2026-05-06 01:49 | 46.33477 | -122.72266 | 26616 ft | 386 kts | 358° |
| 2026-05-06 01:49 | 46.36120 | -122.72358 | 26106 ft | 384 kts | 358° |
| 2026-05-06 01:49 | 46.38789 | -122.72456 | 25596 ft | 383 kts | 358° |
| 2026-05-06 01:49 | 46.41444 | -122.72553 | 25100 ft | 381 kts | 358° |
| 2026-05-06 01:50 | 46.44093 | -122.72651 | 24606 ft | 380 kts | 358° |
| 2026-05-06 01:50 | 46.46733 | -122.72749 | 24135 ft | 379 kts | 358° |
| 2026-05-06 01:50 | 46.49368 | -122.72845 | 23663 ft | 378 kts | 358° |
| 2026-05-06 01:50 | 46.51992 | -122.72938 | 23141 ft | 377 kts | 358° |
| 2026-05-06 01:51 | 46.54605 | -122.73032 | 22678 ft | 374 kts | 358° |
| 2026-05-06 01:51 | 46.57197 | -122.73123 | 22202 ft | 372 kts | 358° |
| 2026-05-06 01:51 | 46.59739 | -122.73212 | 21735 ft | 370 kts | 358° |
| 2026-05-06 01:51 | 46.62298 | -122.73305 | 21349 ft | 365 kts | 358° |
| 2026-05-06 01:52 | 46.64801 | -122.73397 | 21099 ft | 354 kts | 358° |
| 2026-05-06 01:52 | 46.67238 | -122.73488 | 20321 ft | 349 kts | 358° |
| 2026-05-06 01:52 | 46.69664 | -122.73578 | 19813 ft | 349 kts | 358° |
| 2026-05-06 01:52 | 46.72087 | -122.73668 | 19326 ft | 348 kts | 358° |
| 2026-05-06 01:53 | 46.74505 | -122.73757 | 18901 ft | 345 kts | 359° |
| 2026-05-06 01:53 | 46.76897 | -122.73528 | 18428 ft | 344 kts | 11° |
| 2026-05-06 01:53 | 46.79161 | -122.72505 | 17756 ft | 340 kts | 24° |
| 2026-05-06 01:53 | 46.81145 | -122.70736 | 17233 ft | 340 kts | 36° |
| 2026-05-06 01:54 | 46.82981 | -122.68557 | 16721 ft | 340 kts | 37° |
| 2026-05-06 01:54 | 46.84816 | -122.66383 | 16221 ft | 339 kts | 37° |
| 2026-05-06 01:54 | 46.86659 | -122.64247 | 15744 ft | 338 kts | 36° |
| 2026-05-06 01:54 | 46.88503 | -122.62149 | 15410 ft | 332 kts | 36° |
| 2026-05-06 01:55 | 46.90297 | -122.60125 | 15286 ft | 320 kts | 36° |
| 2026-05-06 01:55 | 46.92034 | -122.58168 | 15137 ft | 311 kts | 36° |
| 2026-05-06 01:55 | 46.93785 | -122.56465 | 14953 ft | 302 kts | 25° |
| 2026-05-06 01:55 | 46.95730 | -122.55347 | 14682 ft | 301 kts | 15° |
| 2026-05-06 01:56 | 46.97737 | -122.54488 | 14355 ft | 300 kts | 15° |
| 2026-05-06 01:56 | 46.99732 | -122.53626 | 14041 ft | 298 kts | 15° |
| 2026-05-06 01:56 | 47.01718 | -122.52760 | 13699 ft | 297 kts | 15° |
| 2026-05-06 01:56 | 47.03697 | -122.51891 | 13374 ft | 296 kts | 15° |
| 2026-05-06 01:57 | 47.05660 | -122.51029 | 13055 ft | 294 kts | 15° |
| 2026-05-06 01:57 | 47.07622 | -122.50184 | 12744 ft | 293 kts | 12° |
| 2026-05-06 01:57 | 47.09624 | -122.49727 | 12453 ft | 291 kts | 6° |
| 2026-05-06 01:57 | 47.11636 | -122.49365 | 12136 ft | 290 kts | 6° |
| 2026-05-06 01:58 | 47.13608 | -122.49005 | 11831 ft | 289 kts | 6° |
| 2026-05-06 01:58 | 47.15600 | -122.48638 | 11528 ft | 288 kts | 6° |
| 2026-05-06 01:58 | 47.17585 | -122.48274 | 11223 ft | 287 kts | 6° |
| 2026-05-06 01:58 | 47.19563 | -122.47913 | 10904 ft | 286 kts | 6° |
| 2026-05-06 01:59 | 47.21549 | -122.47587 | 10490 ft | 288 kts | 5° |
| 2026-05-06 01:59 | 47.23547 | -122.47287 | 10096 ft | 290 kts | 5° |
| 2026-05-06 01:59 | 47.25562 | -122.46991 | 9670 ft | 291 kts | 5° |
| 2026-05-06 01:59 | 47.27556 | -122.46693 | 9248 ft | 284 kts | 5° |
| 2026-05-06 02:00 | 47.29484 | -122.46402 | 8868 ft | 282 kts | 5° |
| 2026-05-06 02:00 | 47.31425 | -122.46111 | 8673 ft | 275 kts | 5° |
| 2026-05-06 02:00 | 47.33294 | -122.45830 | 8587 ft | 265 kts | 5° |
| 2026-05-06 02:00 | 47.35094 | -122.45564 | 8481 ft | 257 kts | 4° |
| 2026-05-06 02:01 | 47.36884 | -122.45530 | 8184 ft | 258 kts | 360° |
| 2026-05-06 02:01 | 47.38664 | -122.45530 | 7848 ft | 253 kts | 360° |
| 2026-05-06 02:01 | 47.40425 | -122.45531 | 7521 ft | 254 kts | 360° |
| 2026-05-06 02:01 | 47.42192 | -122.45534 | 7191 ft | 255 kts | 359° |
| 2026-05-06 02:02 | 47.43970 | -122.45536 | 6876 ft | 256 kts | 360° |
| 2026-05-06 02:02 | 47.45721 | -122.45537 | 6539 ft | 252 kts | 360° |
| 2026-05-06 02:02 | 47.47443 | -122.45537 | 6214 ft | 243 kts | 360° |
| 2026-05-06 02:02 | 47.49069 | -122.45538 | 6130 ft | 228 kts | 360° |
| 2026-05-06 02:03 | 47.50644 | -122.45539 | 6030 ft | 226 kts | 360° |
| 2026-05-06 02:03 | 47.52215 | -122.45539 | 5839 ft | 226 kts | 360° |
| 2026-05-06 02:03 | 47.53791 | -122.45534 | 5519 ft | 227 kts | 360° |
| 2026-05-06 02:03 | 47.55368 | -122.45526 | 5227 ft | 226 kts | 360° |
| 2026-05-06 02:04 | 47.56934 | -122.45457 | 4931 ft | 225 kts | 7° |
| 2026-05-06 02:04 | 47.58397 | -122.44794 | 4639 ft | 222 kts | 26° |
| 2026-05-06 02:04 | 47.59617 | -122.43482 | 4360 ft | 213 kts | 44° |
| 2026-05-06 02:04 | 47.60464 | -122.41738 | 4102 ft | 206 kts | 62° |
| 2026-05-06 02:05 | 47.60904 | -122.39748 | 3884 ft | 204 kts | 79° |
| 2026-05-06 02:05 | 47.60932 | -122.37654 | 3593 ft | 204 kts | 97° |
| 2026-05-06 02:05 | 47.60529 | -122.35647 | 3317 ft | 204 kts | 115° |
| 2026-05-06 02:05 | 47.59741 | -122.33917 | 3054 ft | 203 kts | 133° |
| 2026-05-06 02:06 | 47.58663 | -122.32635 | 2801 ft | 201 kts | 150° |
| 2026-05-06 02:06 | 47.57387 | -122.31873 | 2550 ft | 197 kts | 168° |
| 2026-05-06 02:06 | 47.56039 | -122.31685 | 2293 ft | 193 kts | 182° |
| 2026-05-06 02:06 | 47.54732 | -122.31705 | 2048 ft | 182 kts | 182° |
| 2026-05-06 02:07 | 47.53505 | -122.31716 | 1819 ft | 170 kts | 181° |
| 2026-05-06 02:07 | 47.52376 | -122.31726 | 1616 ft | 152 kts | 181° |
| 2026-05-06 02:07 | 47.51357 | -122.31732 | 1408 ft | 142 kts | 181° |
| 2026-05-06 02:07 | 47.50381 | -122.31739 | 1219 ft | 138 kts | 181° |
| 2026-05-06 02:08 | 47.49425 | -122.31742 | 1023 ft | 137 kts | 181° |
| 2026-05-06 02:08 | 47.48475 | -122.31764 | 829 ft | 136 kts | 182° |
| 2026-05-06 02:08 | 47.47549 | -122.31784 | 668 ft | 134 kts | 181° |
| 2026-05-06 02:08 | 47.46619 | -122.31783 | 472 ft | 133 kts | 181° |
| 2026-05-06 02:09 | 47.45733 | -122.31794 | 385 ft | 114 kts | 180° |
| 2026-05-06 02:09 | 47.45121 | -122.31794 | 384 ft | 61 kts | 179° |
| 2026-05-06 02:09 | 47.44811 | -122.31692 | 384 ft | 40 kts | 150° |
| 2026-05-06 02:09 | 47.44678 | -122.31533 | 384 ft | 21 kts | 119° |
| 2026-05-06 02:10 | 47.44645 | -122.31300 | 384 ft | 27 kts | 91° |
| 2026-05-06 02:10 | 47.44557 | -122.31028 | 384 ft | 31 kts | 144° |
| 2026-05-06 02:10 | 47.44384 | -122.30868 | 384 ft | 26 kts | 133° |
| 2026-05-06 02:10 | 47.44345 | -122.30690 | 384 ft | 14 kts | 107° |
| 2026-05-06 02:11 | 47.44285 | -122.30638 | 384 ft | 10 kts | 188° |
| 2026-05-06 02:11 | 47.44208 | -122.30641 | 384 ft | 15 kts | 169° |
| 2026-05-06 02:11 | 47.44097 | -122.30638 | 384 ft | 15 kts | 180° |
| 2026-05-06 02:11 | 47.43975 | -122.30636 | 384 ft | 15 kts | 180° |
| 2026-05-06 02:12 | 47.43863 | -122.30637 | 384 ft | 19 kts | 180° |
| 2026-05-06 02:12 | 47.43757 | -122.30635 | 384 ft | 13 kts | 168° |
| 2026-05-06 02:12 | 47.43723 | -122.30532 | 383 ft | 17 kts | 90° |
| 2026-05-06 02:12 | 47.43722 | -122.30344 | 383 ft | 17 kts | 85° |
| 2026-05-06 02:13 | 47.43744 | -122.30187 | 384 ft | 15 kts | 77° |
| 2026-05-06 02:13 | 47.43759 | -122.30095 | 384 ft | 10 kts | 77° |
| 2026-05-06 02:13 | 47.43763 | -122.30063 | 384 ft | 6 kts | 78° |
| 2026-05-06 02:13 | 47.43769 | -122.29990 | 384 ft | 8 kts | 85° |
| 2026-05-06 02:14 | 47.43771 | -122.29906 | 384 ft | 9 kts | 90° |
| 2026-05-06 02:14 | 47.43767 | -122.29821 | 384 ft | 7 kts | 93° |
| 2026-05-06 02:14 | 47.43787 | -122.29761 | 384 ft | 4 kts | 24° |
| 2026-05-06 02:14 | 47.43794 | -122.29758 | 384 ft | 1 kts | 19° |
| 2026-05-06 02:15 | 47.43807 | -122.29752 | 384 ft | 1 kts | 14° |
| 2026-05-06 02:15 | 47.43808 | -122.29752 | 384 ft | 0 kts | 14° |